Skip Navigation LinksHome page > Weather > Current weather Skip Navigation Links

Current Weather

Ndjamena, Chad

For information only: do not use for flight planning or navigation.
Latest weather
Observation time Thursday, April 2, 2015 10:00 AM WAT
Local time Thursday, April 2, 2015 10:41 AM WAT
Flight conditions Instrument Meteorological Conditions
Winds
Wind direction Northeast (40°)
Wind speed 20 mph
Visibility 1.4 mi.
Present weather dust
Sky condition
Ceiling unlimited
Temperature 95°F
Dewpoint 45°F
Altimeter 29.85 in.Hg
Derived measurements
Relative humidity 18%
Heat index 95°F
Density altitude 2787 ft.
Remarks
No significant changes expected in the next two hours.
METAR FTTJ 020900Z 04017KT 2200 DU NSC 35/07 Q1011 NOSIG

Settings

Location code

InnerDrive.Weather 4.0.5567.0 Release CLR 4.0.30319.34014
Copyright ©2015 Inner Drive Technology. All rights reserved. Portions Copyright ©1986-2015 David Braverman.

Find weather

Site navigation


Skip Navigation Links

Place info

Page info

PayPal - The safer, easier way to pay online!

Return home.

Copyright ©2015 Inner Drive Technology. Purveyors of fine, hand-crafted computer software. Page printed 2015-04-02T09:41:38 UTC.